Weather History for Meadow Lake, CO

Change the Weather History Date:

Thursday, March 7, 2013

  Actual Average (KCOS) Record (KCOS)
Temperature  
Mean Temperature 44 °F 37 °F  
Max Temperature 60 °F 50 °F 70 °F (1925)
Min Temperature 29 °F 24 °F -11 °F (1920)
Degree Days  
Heating Degree Days 20 28  
Month to date heating degree days 203  
Since 1 July heating degree days 4766  
Cooling Degree Days 0 0  
Month to date cooling degree days 0  
Year to date cooling degree days 0  
Moisture  
Dew Point 14 °F    
Average Humidity 34    
Maximum Humidity 74    
Minimum Humidity 13    
Precipitation  
Precipitation 0.00 in 0.03 in 0.59 in (1964)
Month to date precipitation 0.19  
Year to date precipitation 0.85  
Snow  
Snow 0.00 in 0.20 in 13.30 in (1964)
Month to date snowfall 1.6  
Since 1 July snowfall 25.6  
Snow Depth -    
Sea Level Pressure  
Sea Level Pressure 29.97 in    
Wind  
Wind Speed 7 mph (WSW)    
Max Wind Speed 18 mph    
Max Gust Speed 30 mph    
Visibility 10 miles    
Events      
T = Trace of Precipitation, MM = Missing Value Source: NWS Daily Summary

Daily Weather History Graph

Daily Weather History Graph

Search for Another Location

Airport:

Trip Planner

Search our weather history database for the weather conditions in past years. The results will help you decide how hot, cold, wet, or windy it might be!

Date:

Astronomy

Mar. 07, 2013 Rise Set
Actual Time 6:21 AM MST 5:57 PM MST
Civil Twilight 5:54 AM MST 6:24 PM MST
Nautical Twilight 5:23 AM MST 6:55 PM MST
Astronomical Twilight 4:52 AM MST 7:26 PM MST
Moon 3:21 AM MST (3/7) 1:49 PM MST (3/7)
Length of Visible Light 12h 29m
Length of Day
11h 36m
Waning Crescent, 19% of the Moon is Illuminated
Mar 7
Waning Crescent
Mar 11
New
Mar 19
First Quarter
Mar 27
Full
Apr 2
Last Quarter

Hourly Weather History & Observations

Time (MST) Temp. Windchill Dew Point Humidity Pressure Visibility Wind Dir Wind Speed Gust Speed Precip Events Conditions
12:13 AM 36.5 °F 31.8 °F 21.6 °F 55% 29.92 in 10.0 mi North 5.8 mph - N/A   Clear
12:33 AM 34.3 °F 29.2 °F 20.7 °F 57% 29.92 in 10.0 mi NNE 5.8 mph - N/A   Clear
12:53 AM 36.9 °F 34.3 °F 19.6 °F 50% 29.92 in 10.0 mi NE 3.5 mph - N/A   Clear
1:13 AM 43.3 °F 39.2 °F 12.9 °F 29% 29.93 in 10.0 mi North 6.9 mph - N/A   Clear
1:33 AM 37.9 °F 34.4 °F 14.7 °F 39% 29.93 in 10.0 mi NNW 4.6 mph - N/A   Clear
1:53 AM 36.9 °F 32.2 °F 14.4 °F 40% 29.92 in 10.0 mi NNW 5.8 mph - N/A   Clear
2:13 AM 39.4 °F 33.2 °F 11.8 °F 32% 29.91 in 10.0 mi North 9.2 mph - N/A   Clear
2:33 AM 42.1 °F 37.1 °F 12.2 °F 30% 29.91 in 10.0 mi NE 8.1 mph - N/A   Clear
2:53 AM 41.4 °F 37.6 °F 11.1 °F 29% 29.91 in 10.0 mi NE 5.8 mph - N/A   Clear
3:13 AM 39.0 °F 35.7 °F 10.9 °F 32% 29.91 in 10.0 mi NE 4.6 mph - N/A   Clear
3:33 AM 40.1 °F 36.9 °F 11.5 °F 31% 29.91 in 10.0 mi NNW 4.6 mph - N/A   Clear
3:53 AM 36.9 °F 33.1 °F 12.0 °F 36% 29.91 in 10.0 mi NW 4.6 mph - N/A   Clear
4:13 AM 35.4 °F 29.7 °F 14.5 °F 42% 29.91 in 10.0 mi WNW 6.9 mph - N/A   Clear
4:33 AM 32.9 °F 28.5 °F 14.4 °F 47% 29.92 in 10.0 mi WNW 4.6 mph - N/A   Clear
4:53 AM 32.7 °F 28.3 °F 14.5 °F 47% 29.93 in 10.0 mi WSW 4.6 mph - N/A   Clear
5:13 AM 33.6 °F 27.5 °F 13.1 °F 43% 29.94 in 10.0 mi West 6.9 mph - N/A   Clear
5:33 AM 34.5 °F 29.4 °F 13.5 °F 42% 29.94 in 10.0 mi WNW 5.8 mph - N/A   Clear
5:53 AM 30.4 °F 24.5 °F 16.0 °F 55% 29.95 in 10.0 mi WNW 5.8 mph - N/A   Clear
6:13 AM 29.3 °F - 17.1 °F 60% 29.95 in 10.0 mi Calm Calm - N/A   Clear
6:33 AM 29.8 °F 24.9 °F 17.1 °F 59% 29.97 in 10.0 mi NW 4.6 mph - N/A   Clear
6:53 AM 30.6 °F 22.4 °F 17.2 °F 58% 29.97 in 10.0 mi NW 9.2 mph - N/A   Clear
7:13 AM 33.4 °F 27.3 °F 15.8 °F 48% 29.98 in 10.0 mi NW 6.9 mph - N/A   Clear
7:33 AM 35.1 °F 29.3 °F 18.3 °F 51% 29.99 in 10.0 mi WNW 6.9 mph - N/A   Clear
7:53 AM 38.3 °F 30.9 °F 23.2 °F 55% 30.00 in 10.0 mi West 11.5 mph - N/A   Clear
8:13 AM 41.4 °F 36.2 °F 23.0 °F 48% 30.01 in 10.0 mi West 8.1 mph - N/A   Clear
8:33 AM 45.0 °F 41.8 °F 19.6 °F 36% 30.01 in 10.0 mi West 5.8 mph - N/A   Clear
8:53 AM 49.1 °F - 18.0 °F 29% 30.02 in 10.0 mi West 4.6 mph - N/A   Clear
9:13 AM 50.9 °F - 15.6 °F 25% 30.02 in 10.0 mi West 12.7 mph - N/A   Clear
9:33 AM 52.3 °F - 12.4 °F 20% 30.02 in 10.0 mi WSW 3.5 mph - N/A   Clear
9:53 AM 53.8 °F - 10.9 °F 18% 30.02 in 10.0 mi West 6.9 mph - N/A   Clear
10:13 AM 54.5 °F - 7.5 °F 15% 30.02 in 10.0 mi Calm Calm - N/A   Clear
10:33 AM 55.6 °F - 6.8 °F 14% 30.02 in 10.0 mi West 8.1 mph - N/A   Clear
10:53 AM 56.3 °F - 7.7 °F 14% 30.02 in 10.0 mi West 6.9 mph - N/A   Clear
11:13 AM 57.6 °F - 6.6 °F 13% 30.02 in 10.0 mi WSW 4.6 mph - N/A   Clear
11:33 AM 57.9 °F - 7.2 °F 13% 30.02 in 10.0 mi SSE 12.7 mph 18.4 mph N/A   Clear
11:53 AM 56.3 °F - 15.8 °F 20% 30.02 in 10.0 mi South 12.7 mph 23.0 mph N/A   Clear
12:13 PM 57.6 °F - 10.4 °F 15% 30.02 in 10.0 mi South 11.5 mph 20.7 mph N/A   Clear
12:33 PM 58.8 °F - 10.2 °F 15% 30.01 in 10.0 mi South 11.5 mph 24.2 mph N/A   Clear
12:53 PM 58.5 °F - 10.4 °F 15% 30.00 in 10.0 mi South 10.4 mph 18.4 mph N/A   Clear
1:13 PM 59.2 °F - 10.4 °F 15% 29.99 in 10.0 mi South 12.7 mph 19.6 mph N/A   Clear
1:33 PM 59.0 °F - 9.0 °F 14% 29.98 in 10.0 mi South 12.7 mph 19.6 mph N/A   Clear
1:53 PM 58.6 °F - 10.2 °F 15% 29.98 in 10.0 mi South 15.0 mph 21.9 mph N/A   Clear
2:05 PM 59.2 °F - 11.1 °F 15% 29.97 in 10.0 mi South 12.7 mph 21.9 mph N/A   Clear
2:47 PM 60.4 °F - 10.6 °F 14% 29.96 in 10.0 mi SSE 12.7 mph 23.0 mph N/A   Clear
3:06 PM 59.7 °F - 10.6 °F 14% 29.96 in 10.0 mi SE 13.8 mph 20.7 mph N/A   Clear
3:26 PM 60.3 °F - 10.4 °F 14% 29.96 in 10.0 mi SE 18.4 mph 24.2 mph N/A   Clear
3:44 PM 58.6 °F - 9.0 °F 14% 29.96 in 10.0 mi SSE 12.7 mph 29.9 mph N/A   Clear
4:04 PM 57.4 °F - 9.5 °F 15% 29.96 in 10.0 mi SE 13.8 mph 18.4 mph N/A   Clear
4:33 PM 54.1 °F - 7.7 °F 16% 29.95 in 10.0 mi ESE 10.4 mph 17.3 mph N/A   Clear
4:53 PM 58.1 °F - 9.7 °F 15% 29.94 in 10.0 mi SSE 12.7 mph 17.3 mph N/A   Clear
6:33 PM 44.2 °F 38.4 °F 11.8 °F 27% 29.97 in 10.0 mi South 11.5 mph - N/A   Clear
6:53 PM 43.0 °F 37.7 °F 11.3 °F 28% 29.97 in 10.0 mi South 9.2 mph - N/A   Clear
7:13 PM 44.6 °F 39.2 °F 9.7 °F 24% 29.98 in 10.0 mi SSW 10.4 mph - N/A   Clear
7:33 PM 43.7 °F 38.6 °F 10.6 °F 26% 29.99 in 10.0 mi ESE 9.2 mph 17.3 mph N/A   Clear
7:53 PM 43.9 °F 38.8 °F 8.6 °F 24% 29.99 in 10.0 mi East 9.2 mph - N/A   Clear
8:13 PM 44.6 °F 40.7 °F 8.8 °F 23% 29.99 in 10.0 mi ESE 6.9 mph - N/A   Clear
8:33 PM 42.6 °F 40.9 °F 11.7 °F 28% 29.99 in 10.0 mi WNW 3.5 mph - N/A   Clear
8:53 PM 43.9 °F 38.3 °F 9.3 °F 24% 30.00 in 10.0 mi East 10.4 mph - N/A   Clear
9:13 PM 38.5 °F 31.6 °F 17.8 °F 43% 30.01 in 10.0 mi East 10.4 mph 19.6 mph N/A   Clear
9:33 PM 37.6 °F 33.1 °F 23.0 °F 56% 30.01 in 10.0 mi South 5.8 mph - N/A   Clear
9:53 PM 37.0 °F 32.4 °F 23.7 °F 59% 30.01 in 10.0 mi South 5.8 mph - N/A   Clear
10:13 PM 37.6 °F 34.0 °F 24.3 °F 59% 30.01 in 10.0 mi South 4.6 mph - N/A   Clear
10:33 PM 36.9 °F 34.3 °F 24.4 °F 61% 30.00 in 10.0 mi North 3.5 mph - N/A   Clear
11:13 PM 35.1 °F 30.1 °F 25.0 °F 67% 30.00 in 10.0 mi North 5.8 mph - N/A   Clear
11:33 PM 33.3 °F 27.9 °F 24.6 °F 71% 30.00 in 10.0 mi North 5.8 mph - N/A   Clear
11:53 PM 32.2 °F 26.7 °F 24.6 °F 74% 29.99 in 10.0 mi NNW 5.8 mph - N/A   Clear